Rockwall's Hourly Summary for Wednesday, March 15, 2017
Hour Temp
(f)
RH
(%)
Solar Rad.
(MJ/m2)
Rainfall
(in)
Wind
(mph)
3/15/2017 12:00 AM 50 54 0 0 0.34
3/15/2017 1:00 AM 49 55 0 0 2.3
3/15/2017 2:00 AM 46 57 0 0 2.08
3/15/2017 3:00 AM 45 61 0 0 2.42
3/15/2017 4:00 AM 45 61 0 0 3.16
3/15/2017 5:00 AM 45 63 0 0 3.3
3/15/2017 6:00 AM 45 67 0 0 2.47
3/15/2017 7:00 AM 45 68 0 0 2.54
3/15/2017 8:00 AM 44 66 0.01 0 3.15
3/15/2017 9:00 AM 44 66 0.17 0 3.86
3/15/2017 10:00 AM 45 65 0.64 0 3.91
3/15/2017 11:00 AM 46 63 1.39 0 4.7
3/15/2017 12:00 PM 49 58 2.19 0 4.46
3/15/2017 1:00 PM 52 54 2.72 0 4.15
3/15/2017 2:00 PM 55 50 2.87 0 4.19
3/15/2017 3:00 PM 58 46 2.5 0 4.18
3/15/2017 4:00 PM 60 45 2.27 0 4.46
3/15/2017 5:00 PM 61 45 1.01 0 3.82
3/15/2017 6:00 PM 62 44 1.04 0 4.1
3/15/2017 7:00 PM 61 46 0.29 0 3.6
3/15/2017 8:00 PM 59 49 0.03 0 1.25
3/15/2017 9:00 PM 56 55 0 0 0.51
3/15/2017 10:00 PM 54 60 0 0 1.11
3/15/2017 11:00 PM 53 63 0 0 1.75
Data Summary 51 56 17.13 0.00 2.99